Casilda, Argentina
Current Conditions -  °F | °C
As of 10:00 AM on Wednesday 26 Nov 2014 (Local Time) from SAAR Reporting Station
Overcast Overcast  
Wind Chill: 70°   Ceiling: 10000
Heat Index: 70°   Visibility: 6mi
Dew Point: 59°   Wind: 5mph
Humidity: 68%   Direction: 110°ESE
Pressure: 29.97"   Gusts: NA
Location:  33.05°S, 61.17°W
Report Text: SAAR 261300Z 11004KT 9999 FEW030 OVC10021/15 Q1015
Loading
Personal Weather Stations






























Interactive Weather Map New forecast layout! Learn more

10-Day Weather Forecast

Advertisements
Track Severe Weather on mobile